Time;durP1;ratioP1;P1;durP2;ratioP2;P2;SDS_P1;SDS_P2;PMS_P1;PMS_P2;Temp;Humidity;BMP_temperature;BMP_pressure;BME280_temperature;BME280_humidity;BME280_pressure;Samples;Min_cycle;Max_cycle;Signal;HPM_P1;HPM_P2
2021/12/14 00:01:04;;;;;;;81.67;37.83;;;2.00;99.90;;;;;;10500165;28;20291;-81
2021/12/14 00:06:26;;;;;;;77.63;37.97;;;2.00;99.90;;;;;;10501196;28;20233;-81
2021/12/14 00:12:06;;;;;;;83.00;38.53;;;2.10;99.90;;;;;;10518567;28;20200;-80
2021/12/14 00:17:38;;;;;;;83.50;39.10;;;2.10;99.90;;;;;;10501446;28;20404;-81
2021/12/14 00:28:26;;;;;;;82.00;37.07;;;2.00;99.90;;;;;;10500398;28;20441;-81
2021/12/14 00:33:53;;;;;;;81.80;37.37;;;2.00;99.90;;;;;;10485217;28;20195;-79
2021/12/14 00:39:16;;;;;;;83.53;38.20;;;1.90;99.90;;;;;;10486632;28;20235;-79
2021/12/14 00:44:38;;;;;;;71.60;36.27;;;1.90;99.90;;;;;;10491775;28;20379;-81
2021/12/14 00:50:01;;;;;;;75.17;37.43;;;2.00;99.90;;;;;;10510827;28;20246;-79
2021/12/14 00:55:30;;;;;;;73.30;34.10;;;2.00;99.90;;;;;;10507624;28;20201;-79
2021/12/14 01:00:58;;;;;;;72.23;35.03;;;2.00;99.90;;;;;;10492914;28;20227;-80
2021/12/14 01:06:26;;;;;;;69.07;32.20;;;2.00;99.90;;;;;;10493339;28;20473;-81
2021/12/14 01:11:51;;;;;;;69.60;32.83;;;2.00;99.90;;;;;;10509729;28;20252;-81
2021/12/14 01:17:40;;;;;;;72.83;34.90;;;2.00;99.90;;;;;;10492902;28;20204;-80
2021/12/14 01:23:13;;;;;;;67.27;31.50;;;2.00;99.90;;;;;;10492719;28;20199;-81
2021/12/14 01:28:37;;;;;;;73.43;32.47;;;2.00;99.90;;;;;;10491143;28;20561;-80
2021/12/14 01:34:04;;;;;;;65.20;31.80;;;2.10;99.90;;;;;;10509187;28;20359;-82
2021/12/14 01:45:09;;;;;;;63.63;32.23;;;2.10;99.90;;;;;;10505533;28;20234;-81
2021/12/14 01:50:56;;;;;;;65.40;30.60;;;2.20;99.90;;;;;;10491626;28;20215;-79
2021/12/14 01:56:29;;;;;;;62.90;30.47;;;2.20;99.90;;;;;;10476735;28;20448;-81
2021/12/14 02:02:17;;;;;;;69.97;33.60;;;2.20;99.90;;;;;;10506894;28;20196;-81
2021/12/14 02:07:39;;;;;;;65.90;30.43;;;2.10;99.90;;;;;;10482482;28;20401;-81
2021/12/14 02:13:04;;;;;;;56.23;27.30;;;2.20;99.90;;;;;;10488169;28;20200;-80
2021/12/14 02:18:29;;;;;;;49.30;26.97;;;2.20;99.90;;;;;;10507566;28;20276;-80
2021/12/14 02:23:53;;;;;;;59.67;28.60;;;2.20;99.90;;;;;;10476648;28;20502;-79
2021/12/14 02:29:30;;;;;;;58.03;27.57;;;2.20;99.90;;;;;;10490118;28;20500;-82
2021/12/14 02:35:01;;;;;;;54.73;26.10;;;2.20;99.90;;;;;;10506842;28;20202;-81
2021/12/14 02:40:53;;;;;;;49.23;23.67;;;2.20;99.90;;;;;;10516142;28;20457;-78
2021/12/14 02:46:22;;;;;;;42.70;21.40;;;2.30;99.90;;;;;;10506143;28;20265;-81
2021/12/14 02:51:48;;;;;;;39.53;20.57;;;2.40;99.90;;;;;;10489129;28;20379;-80
2021/12/14 02:57:22;;;;;;;37.43;19.17;;;2.40;99.90;;;;;;10473190;28;20219;-81
2021/12/14 03:02:44;;;;;;;43.33;21.67;;;2.50;99.90;;;;;;10490233;28;20404;-81
2021/12/14 03:08:18;;;;;;;48.50;23.77;;;2.40;99.90;;;;;;10488117;28;20534;-79
2021/12/14 03:13:51;;;;;;;53.43;25.43;;;2.40;99.90;;;;;;10505625;28;20266;-81
2021/12/14 03:19:13;;;;;;;42.33;21.43;;;2.40;99.90;;;;;;10505607;28;20215;-80
2021/12/14 03:24:39;;;;;;;43.23;20.23;;;2.40;99.90;;;;;;10488133;28;20227;-79
2021/12/14 03:30:01;;;;;;;45.87;21.23;;;2.40;99.90;;;;;;10487234;28;20201;-82
2021/12/14 03:35:41;;;;;;;46.97;22.97;;;2.40;99.90;;;;;;10505093;28;20200;-81
2021/12/14 03:41:12;;;;;;;45.63;22.00;;;2.40;99.90;;;;;;10504435;28;20269;-79
2021/12/14 03:46:44;;;;;;;48.17;23.67;;;2.40;99.90;;;;;;10487759;28;20623;-80
2021/12/14 03:52:09;;;;;;;43.90;22.60;;;2.40;99.90;;;;;;10487432;28;20425;-78
2021/12/14 03:57:33;;;;;;;42.13;22.20;;;2.40;99.90;;;;;;10486445;28;20204;-81
2021/12/14 04:03:02;;;;;;;34.37;18.17;;;2.50;99.90;;;;;;10504269;28;20203;-83
2021/12/14 04:08:37;;;;;;;32.20;17.53;;;2.50;99.90;;;;;;10487267;28;20235;-81
2021/12/14 04:14:00;;;;;;;31.73;16.63;;;2.60;99.90;;;;;;10487613;28;20504;-79
2021/12/14 04:19:31;;;;;;;32.03;17.00;;;2.60;99.90;;;;;;10490302;28;20375;-81
2021/12/14 04:24:58;;;;;;;32.93;18.23;;;2.60;99.90;;;;;;10525564;28;20561;-80
2021/12/14 04:30:25;;;;;;;32.60;17.13;;;2.60;99.90;;;;;;10511318;28;20196;-81
2021/12/14 04:35:48;;;;;;;36.73;18.07;;;2.70;99.90;;;;;;10494317;28;20217;-80
2021/12/14 04:52:21;;;;;;;46.27;25.93;;;2.60;99.90;;;;;;10492022;28;20204;-81
2021/12/14 04:57:46;;;;;;;36.60;20.60;;;2.50;99.90;;;;;;10510336;28;20191;-81
2021/12/14 05:03:22;;;;;;;37.40;20.80;;;2.50;99.90;;;;;;10509980;28;20197;-81
2021/12/14 05:14:15;;;;;;;42.97;24.17;;;2.60;99.90;;;;;;10493162;28;20214;-80
2021/12/14 05:19:44;;;;;;;40.30;22.17;;;2.60;99.90;;;;;;10489717;28;20499;-81
2021/12/14 05:25:11;;;;;;;32.77;17.77;;;2.60;99.90;;;;;;10509656;28;20243;-81
2021/12/14 05:30:41;;;;;;;37.10;19.33;;;2.70;99.90;;;;;;10504520;28;20581;-80
2021/12/14 05:36:15;;;;;;;31.47;18.33;;;2.60;99.90;;;;;;10508828;28;20253;-82
2021/12/14 05:47:18;;;;;;;34.73;18.73;;;2.70;99.90;;;;;;10488690;28;20229;-81
2021/12/14 05:52:55;;;;;;;37.57;19.90;;;2.70;99.90;;;;;;10508368;28;20226;-81
2021/12/14 05:58:22;;;;;;;62.37;31.63;;;2.60;99.90;;;;;;10490867;28;20235;-81
2021/12/14 06:03:51;;;;;;;115.03;61.90;;;2.60;99.90;;;;;;10504599;28;20272;-82
2021/12/14 06:09:27;;;;;;;84.33;46.80;;;2.60;99.90;;;;;;10504403;28;20591;-80
2021/12/14 06:15:00;;;;;;;63.43;35.03;;;2.60;99.90;;;;;;10475765;28;20203;-85
2021/12/14 06:20:25;;;;;;;60.17;34.53;;;2.60;99.90;;;;;;10507225;28;20390;-83
2021/12/14 06:25:52;;;;;;;74.20;36.80;;;2.60;99.90;;;;;;10506914;28;20298;-82
2021/12/14 06:31:15;;;;;;;51.97;28.43;;;2.60;99.90;;;;;;10485419;28;20199;-82
2021/12/14 06:37:14;;;;;;;55.70;28.03;;;2.60;99.90;;;;;;10504024;28;20202;-83
2021/12/14 06:42:41;;;;;;;51.37;26.80;;;2.60;99.90;;;;;;10505789;28;20238;-85
2021/12/14 06:48:20;;;;;;;72.13;37.17;;;2.70;99.90;;;;;;10506114;28;20223;-82
2021/12/14 06:53:48;;;;;;;64.23;34.57;;;2.70;99.90;;;;;;10489609;28;20278;-82
2021/12/14 06:59:35;;;;;;;72.03;37.33;;;2.80;99.90;;;;;;10504631;28;20208;-85
2021/12/14 07:05:05;;;;;;;47.67;24.80;;;2.80;99.90;;;;;;10521122;28;20215;-84
2021/12/14 07:10:37;;;;;;;48.20;26.27;;;2.80;99.90;;;;;;10489181;28;20199;-82
2021/12/14 07:16:00;;;;;;;84.13;48.07;;;2.70;99.90;;;;;;10499408;28;20494;-80
2021/12/14 07:21:35;;;;;;;121.67;63.20;;;2.70;99.90;;;;;;10502132;28;20416;-81
2021/12/14 07:27:19;;;;;;;115.83;53.33;;;2.80;99.90;;;;;;10519920;28;20224;-83
2021/12/14 07:33:08;;;;;;;106.73;53.37;;;2.80;99.90;;;;;;10511885;28;20207;-80
2021/12/14 07:38:47;;;;;;;59.00;34.70;;;2.80;99.90;;;;;;10487852;28;20200;-82
2021/12/14 07:44:14;;;;;;;79.90;44.73;;;2.80;99.90;;;;;;10486728;28;20441;-82
2021/12/14 07:49:44;;;;;;;64.17;36.77;;;2.70;99.90;;;;;;10504436;28;20198;-79
2021/12/14 07:55:14;;;;;;;67.50;39.30;;;2.80;99.90;;;;;;10524127;28;20270;-79
2021/12/14 08:00:40;;;;;;;71.20;41.03;;;2.90;99.90;;;;;;10508281;28;20434;-81
2021/12/14 08:06:09;;;;;;;61.00;36.17;;;2.90;99.90;;;;;;10471289;28;20239;-85
2021/12/14 08:17:08;;;;;;;78.67;44.63;;;2.90;99.90;;;;;;10507106;28;20275;-83
2021/12/14 08:22:34;;;;;;;56.20;32.23;;;2.90;99.90;;;;;;10507296;28;20207;-85
2021/12/14 08:28:05;;;;;;;51.17;26.20;;;3.00;99.90;;;;;;10483343;28;20245;-84
2021/12/14 08:33:31;;;;;;;42.20;24.97;;;3.00;99.90;;;;;;10490251;28;20199;-78
2021/12/14 08:39:30;;;;;;;52.30;24.87;;;3.00;99.90;;;;;;10522340;28;20574;-81
2021/12/14 08:44:59;;;;;;;45.83;22.90;;;3.10;99.90;;;;;;10502946;28;20216;-80
2021/12/14 08:50:22;;;;;;;45.20;24.13;;;3.10;99.90;;;;;;10505668;28;20212;-82
2021/12/14 08:55:49;;;;;;;51.77;28.83;;;3.20;99.90;;;;;;10505706;28;20231;-84
2021/12/14 09:01:16;;;;;;;57.03;27.83;;;3.30;99.90;;;;;;10513196;28;20208;-82
2021/12/14 09:06:41;;;;;;;48.17;27.50;;;3.40;99.90;;;;;;10474613;28;20437;-81
2021/12/14 09:12:13;;;;;;;51.53;27.57;;;3.50;99.90;;;;;;10506570;28;20204;-86
2021/12/14 09:17:35;;;;;;;47.00;27.70;;;3.60;99.90;;;;;;10498024;28;20225;-91
2021/12/14 09:23:08;;;;;;;50.10;26.30;;;3.60;99.90;;;;;;10508515;28;20265;-83
2021/12/14 09:28:31;;;;;;;38.60;24.37;;;3.60;99.90;;;;;;10458726;28;20230;-82
2021/12/14 09:33:59;;;;;;;36.90;22.00;;;3.60;99.90;;;;;;10469006;28;20263;-81
2021/12/14 09:39:34;;;;;;;38.87;22.47;;;3.60;99.90;;;;;;10457117;28;20229;-81
2021/12/14 09:45:01;;;;;;;35.40;21.70;;;3.60;99.90;;;;;;10518173;28;20403;-76
2021/12/14 09:50:29;;;;;;;44.53;23.97;;;3.60;99.90;;;;;;10496871;28;20211;-81
2021/12/14 09:55:53;;;;;;;69.80;29.97;;;3.60;99.90;;;;;;10516173;28;20694;-79
2021/12/14 10:01:36;;;;;;;66.40;29.03;;;3.70;99.90;;;;;;10516524;28;20510;-82
2021/12/14 10:07:02;;;;;;;50.80;27.87;;;3.70;99.90;;;;;;10485951;28;20231;-87
2021/12/14 10:18:12;;;;;;;76.83;43.57;;;3.70;99.90;;;;;;10499062;28;20203;-79
2021/12/14 10:23:35;;;;;;;65.40;35.43;;;3.80;99.90;;;;;;10466631;28;20516;-84
2021/12/14 10:28:59;;;;;;;53.77;31.00;;;3.80;99.90;;;;;;10481483;28;20411;-79
2021/12/14 10:34:25;;;;;;;48.00;28.43;;;3.90;99.90;;;;;;10498002;28;20209;-79
2021/12/14 10:45:30;;;;;;;37.30;22.73;;;3.90;99.90;;;;;;10482846;28;20257;-79
2021/12/14 10:50:56;;;;;;;33.07;21.73;;;4.00;99.90;;;;;;10502188;28;20456;-78
2021/12/14 10:56:25;;;;;;;60.57;30.30;;;3.90;99.90;;;;;;10499825;28;20196;-80
2021/12/14 11:01:50;;;;;;;70.27;33.13;;;4.00;99.90;;;;;;10512879;28;20229;-78
2021/12/14 11:07:21;;;;;;;42.60;24.83;;;4.10;99.90;;;;;;10479879;28;20394;-80
2021/12/14 11:12:50;;;;;;;38.73;22.70;;;4.00;99.90;;;;;;10496559;28;20486;-85
2021/12/14 11:18:16;;;;;;;31.30;20.00;;;4.10;99.90;;;;;;10500106;28;20206;-79
2021/12/14 11:23:45;;;;;;;30.43;18.73;;;4.10;99.90;;;;;;10515505;28;20768;-79
2021/12/14 11:29:15;;;;;;;33.03;19.67;;;4.20;99.90;;;;;;10484681;28;20232;-82
2021/12/14 11:34:39;;;;;;;49.83;28.73;;;4.20;99.90;;;;;;10492909;28;20233;-78
2021/12/14 11:40:09;;;;;;;58.63;31.57;;;4.20;99.90;;;;;;10493450;28;20542;-87
2021/12/14 11:45:36;;;;;;;58.17;33.50;;;4.20;99.90;;;;;;10483109;28;20545;-78
2021/12/14 11:51:03;;;;;;;69.00;42.00;;;4.30;99.90;;;;;;10513830;28;20558;-78
2021/12/14 11:56:28;;;;;;;69.90;42.07;;;4.20;99.90;;;;;;10496616;28;20230;-85
2021/12/14 12:01:54;;;;;;;67.83;36.33;;;4.20;99.90;;;;;;10499545;28;20507;-78
2021/12/14 12:12:47;;;;;;;52.13;28.30;;;4.30;99.90;;;;;;10493523;28;20243;-78
2021/12/14 12:18:09;;;;;;;53.57;28.57;;;4.30;99.90;;;;;;10499390;28;20219;-79
2021/12/14 12:23:33;;;;;;;38.40;23.37;;;4.30;99.90;;;;;;10482746;28;20226;-86
2021/12/14 12:29:02;;;;;;;45.80;24.47;;;4.40;99.90;;;;;;10499002;28;20245;-86
2021/12/14 12:34:34;;;;;;;39.10;21.73;;;4.30;99.90;;;;;;10497637;28;20774;-77
2021/12/14 12:39:57;;;;;;;45.73;21.97;;;4.30;99.90;;;;;;10497789;28;20559;-82
2021/12/14 12:45:34;;;;;;;76.40;41.73;;;4.30;99.90;;;;;;10507189;28;20201;-82
2021/12/14 12:50:56;;;;;;;40.90;23.17;;;4.30;99.90;;;;;;10506555;28;20374;-93
2021/12/14 12:56:20;;;;;;;40.50;21.27;;;4.30;99.90;;;;;;10506776;28;20201;-80
2021/12/14 13:01:43;;;;;;;48.53;24.87;;;4.20;99.90;;;;;;10504047;28;20210;-83
2021/12/14 13:07:09;;;;;;;41.63;21.67;;;4.30;99.90;;;;;;10490592;28;20258;-88
2021/12/14 13:12:46;;;;;;;36.03;19.87;;;4.30;99.90;;;;;;10504624;28;20239;-86
2021/12/14 13:18:18;;;;;;;37.63;22.03;;;4.30;99.90;;;;;;10503929;28;20312;-80
2021/12/14 13:23:49;;;;;;;43.93;26.47;;;4.30;99.90;;;;;;10487838;28;20213;-79
2021/12/14 13:29:21;;;;;;;72.60;37.10;;;4.30;99.90;;;;;;10520185;28;20243;-80
2021/12/14 13:34:49;;;;;;;99.97;45.93;;;4.30;99.90;;;;;;10510503;28;20245;-80
2021/12/14 13:40:15;;;;;;;88.03;42.43;;;4.30;99.90;;;;;;10498551;28;20296;-80
2021/12/14 13:45:44;;;;;;;58.07;32.50;;;4.20;99.90;;;;;;10528901;28;20451;-82
2021/12/14 13:51:12;;;;;;;52.30;30.93;;;4.20;99.90;;;;;;10527720;28;20235;-81
2021/12/14 13:56:37;;;;;;;57.73;31.03;;;4.20;99.90;;;;;;10544584;28;20238;-82
2021/12/14 14:01:59;;;;;;;65.00;35.17;;;4.20;99.90;;;;;;10542541;28;20224;-80
2021/12/14 14:07:22;;;;;;;64.40;36.47;;;4.30;99.90;;;;;;10527466;28;20534;-79
2021/12/14 14:13:10;;;;;;;80.70;39.77;;;4.30;99.90;;;;;;10527844;28;20208;-80
2021/12/14 14:18:37;;;;;;;59.63;33.33;;;4.30;99.90;;;;;;10540453;28;20431;-80
2021/12/14 14:24:01;;;;;;;47.30;26.00;;;4.30;99.90;;;;;;10525752;28;20227;-79
2021/12/14 14:29:25;;;;;;;38.90;24.03;;;4.30;99.90;;;;;;10525251;28;20281;-80
2021/12/14 14:34:54;;;;;;;44.50;26.10;;;4.30;99.90;;;;;;10521998;28;20209;-80
2021/12/14 14:40:18;;;;;;;65.10;34.13;;;4.20;99.90;;;;;;10525885;28;20248;-80
2021/12/14 14:45:43;;;;;;;75.63;40.53;;;4.20;99.90;;;;;;10525399;28;20300;-82
2021/12/14 14:51:05;;;;;;;60.20;34.50;;;4.20;99.90;;;;;;10512771;28;20239;-81
2021/12/14 14:56:29;;;;;;;58.73;30.60;;;4.20;99.90;;;;;;10543040;28;20228;-80
2021/12/14 15:01:51;;;;;;;55.47;28.63;;;4.30;99.90;;;;;;10523805;28;20511;-89
2021/12/14 15:07:14;;;;;;;52.30;28.17;;;4.30;99.90;;;;;;10512275;28;20418;-83
2021/12/14 15:12:38;;;;;;;58.07;32.03;;;4.30;99.90;;;;;;10544423;28;20200;-82
2021/12/14 15:18:00;;;;;;;60.77;32.23;;;4.30;99.90;;;;;;10511931;28;20239;-88
2021/12/14 15:23:24;;;;;;;55.67;31.90;;;4.30;99.90;;;;;;10525593;28;20211;-82
2021/12/14 15:28:46;;;;;;;54.13;28.27;;;4.30;99.90;;;;;;10499364;28;20301;-87
2021/12/14 15:34:09;;;;;;;55.10;27.50;;;4.30;99.90;;;;;;10503854;28;20211;-80
2021/12/14 15:39:38;;;;;;;46.67;28.07;;;4.30;99.90;;;;;;10540144;28;20524;-81
2021/12/14 15:45:01;;;;;;;49.93;27.97;;;4.30;99.90;;;;;;10510884;28;20243;-79
2021/12/14 15:50:23;;;;;;;41.40;24.63;;;4.40;99.90;;;;;;10524347;28;20248;-80
2021/12/14 15:55:46;;;;;;;53.10;29.67;;;4.40;99.90;;;;;;10523024;28;20547;-85
2021/12/14 16:01:31;;;;;;;36.30;22.20;;;4.40;99.90;;;;;;10501296;28;20201;-84
2021/12/14 16:06:56;;;;;;;40.37;23.40;;;4.40;99.90;;;;;;10529463;28;20295;-78
2021/12/14 16:18:04;;;;;;;25.13;19.17;;;4.40;99.90;;;;;;10550640;28;20432;-81
2021/12/14 16:23:32;;;;;;;34.53;21.13;;;4.30;99.90;;;;;;10551633;28;20489;-80
2021/12/14 16:29:02;;;;;;;26.10;17.20;;;4.40;99.90;;;;;;10533341;28;20593;-83
2021/12/14 16:34:24;;;;;;;26.20;16.10;;;4.40;99.90;;;;;;10551137;28;20261;-82
2021/12/14 16:39:48;;;;;;;27.00;16.37;;;4.30;99.90;;;;;;10533981;28;20240;-82
2021/12/14 16:45:11;;;;;;;28.83;17.23;;;4.40;99.90;;;;;;10502377;28;20230;-83
2021/12/14 16:50:36;;;;;;;32.00;18.77;;;4.40;99.90;;;;;;10521699;28;20244;-83
2021/12/14 16:56:00;;;;;;;28.63;16.53;;;4.40;99.90;;;;;;10535025;28;20227;-83
2021/12/14 17:01:22;;;;;;;25.67;16.30;;;4.40;99.90;;;;;;10535631;28;20201;-82
2021/12/14 17:06:49;;;;;;;25.03;15.37;;;4.40;99.90;;;;;;10521575;28;20223;-79
2021/12/14 17:12:16;;;;;;;23.63;15.43;;;4.40;99.90;;;;;;10549117;28;20204;-81
2021/12/14 17:17:39;;;;;;;22.93;14.10;;;4.40;99.90;;;;;;10548803;28;20206;-80
2021/12/14 17:23:04;;;;;;;25.63;15.73;;;4.40;99.90;;;;;;10547796;28;20226;-79
2021/12/14 17:28:41;;;;;;;25.43;15.60;;;4.40;99.90;;;;;;10533804;28;20239;-79
2021/12/14 17:34:07;;;;;;;25.23;15.63;;;4.40;99.90;;;;;;10548350;28;20196;-79
2021/12/14 17:39:38;;;;;;;25.47;15.53;;;4.40;99.90;;;;;;10533562;28;20562;-78
2021/12/14 17:45:18;;;;;;;22.00;14.07;;;4.40;99.90;;;;;;10545157;28;20496;-80
2021/12/14 17:50:45;;;;;;;27.47;16.10;;;4.50;99.90;;;;;;10533672;28;20403;-79
2021/12/14 17:56:09;;;;;;;26.43;16.27;;;4.50;99.90;;;;;;10546435;28;20204;-78
2021/12/14 18:01:31;;;;;;;29.70;18.00;;;4.50;99.90;;;;;;10550257;28;20500;-77
2021/12/14 18:06:55;;;;;;;30.23;15.87;;;4.50;99.90;;;;;;10549770;28;20225;-78
2021/12/14 18:12:20;;;;;;;35.63;18.57;;;4.40;99.90;;;;;;10528996;28;20223;-80
2021/12/14 18:17:53;;;;;;;31.57;17.80;;;4.50;99.90;;;;;;10549692;28;20434;-79
2021/12/14 18:23:20;;;;;;;30.50;18.23;;;4.50;99.90;;;;;;10519663;28;20315;-78
2021/12/14 18:28:52;;;;;;;44.40;23.70;;;4.50;99.90;;;;;;10529925;28;20232;-79
2021/12/14 18:34:17;;;;;;;50.37;27.77;;;4.60;99.90;;;;;;10545778;28;20504;-80
2021/12/14 18:40:06;;;;;;;82.47;36.43;;;4.50;99.90;;;;;;10533116;28;20233;-79
2021/12/14 18:45:29;;;;;;;45.27;22.30;;;4.60;99.90;;;;;;10546416;28;20197;-80
2021/12/14 18:50:52;;;;;;;35.40;17.73;;;4.60;99.90;;;;;;10532375;28;20241;-78
2021/12/14 18:56:15;;;;;;;36.63;20.57;;;4.60;99.90;;;;;;10561190;28;20229;-80
2021/12/14 19:01:41;;;;;;;29.17;19.17;;;4.60;99.90;;;;;;10525807;28;20399;-77
2021/12/14 19:07:04;;;;;;;24.00;15.53;;;4.60;99.90;;;;;;10560145;28;20217;-78
2021/12/14 19:12:32;;;;;;;24.00;14.80;;;4.60;99.90;;;;;;10529021;28;20209;-79
2021/12/14 19:18:06;;;;;;;28.90;17.10;;;4.60;99.90;;;;;;10542037;28;20205;-79
2021/12/14 19:23:30;;;;;;;24.23;14.80;;;4.60;99.90;;;;;;10545424;28;20196;-78
2021/12/14 19:28:58;;;;;;;21.77;11.70;;;4.50;99.90;;;;;;10527995;28;20271;-78
2021/12/14 19:34:28;;;;;;;25.90;12.83;;;4.50;99.90;;;;;;10541926;28;20228;-78
2021/12/14 19:39:54;;;;;;;30.00;15.63;;;4.40;99.90;;;;;;10495532;28;1294500;-78
2021/12/14 19:45:17;;;;;;;52.07;24.03;;;4.40;99.90;;;;;;10543763;28;20474;-80
2021/12/14 19:50:40;;;;;;;21.10;9.77;;;4.40;99.90;;;;;;10541975;28;20274;-81
2021/12/14 19:56:05;;;;;;;19.00;8.83;;;4.30;99.90;;;;;;10561225;28;20209;-81
2021/12/14 20:01:31;;;;;;;21.50;9.33;;;4.30;99.90;;;;;;10525458;28;20216;-81
2021/12/14 20:06:59;;;;;;;19.63;11.00;;;4.30;99.90;;;;;;10527284;28;20225;-81
2021/12/14 20:12:35;;;;;;;21.80;10.30;;;4.30;99.90;;;;;;10543285;28;20211;-82
2021/12/14 20:18:03;;;;;;;18.57;10.80;;;4.40;99.90;;;;;;10560877;28;20232;-82
2021/12/14 20:23:33;;;;;;;13.03;8.33;;;4.40;99.90;;;;;;10540118;28;20200;-79
2021/12/14 20:29:10;;;;;;;10.83;8.33;;;4.40;99.90;;;;;;10545572;28;20225;-79
2021/12/14 20:34:34;;;;;;;11.50;8.17;;;4.30;99.90;;;;;;10542513;28;20292;-79
2021/12/14 20:40:02;;;;;;;11.53;6.93;;;4.40;99.90;;;;;;10542433;28;20280;-78
2021/12/14 20:45:54;;;;;;;8.67;5.57;;;4.30;99.90;;;;;;10543204;28;20530;-78
2021/12/14 20:51:21;;;;;;;8.60;5.20;;;4.30;99.90;;;;;;10542255;28;20231;-78
2021/12/14 20:56:44;;;;;;;11.83;6.03;;;4.30;99.90;;;;;;10560680;28;20204;-77
2021/12/14 21:02:08;;;;;;;10.37;6.77;;;4.30;99.90;;;;;;10528077;28;20376;-77
2021/12/14 21:07:31;;;;;;;11.87;6.77;;;4.30;99.90;;;;;;10528777;28;20233;-78
2021/12/14 21:12:56;;;;;;;10.60;6.03;;;4.20;99.90;;;;;;10535349;28;20223;-78
2021/12/14 21:18:18;;;;;;;13.43;7.70;;;4.20;99.90;;;;;;10566858;28;20199;-78
2021/12/14 21:23:40;;;;;;;8.50;6.63;;;4.20;99.90;;;;;;10520822;28;20205;-78
2021/12/14 21:29:04;;;;;;;9.80;5.93;;;4.20;99.90;;;;;;10534848;28;20241;-77
2021/12/14 21:34:26;;;;;;;10.70;5.93;;;4.20;99.90;;;;;;10547682;28;20235;-77
2021/12/14 21:39:51;;;;;;;10.03;5.77;;;4.20;99.90;;;;;;10550644;28;20240;-78
2021/12/14 21:45:40;;;;;;;10.43;7.07;;;4.20;99.90;;;;;;10547954;28;20189;-78
2021/12/14 21:51:02;;;;;;;8.93;6.17;;;4.20;99.90;;;;;;10550643;28;20363;-78
2021/12/14 21:56:25;;;;;;;13.07;6.30;;;4.10;99.90;;;;;;10547463;28;20235;-77
2021/12/14 22:01:48;;;;;;;14.10;6.47;;;4.10;99.90;;;;;;10543487;28;20464;-79
2021/12/14 22:07:13;;;;;;;6.43;5.47;;;4.20;99.90;;;;;;10564451;28;20244;-76
2021/12/14 22:12:39;;;;;;;8.57;5.33;;;4.10;99.90;;;;;;10545905;28;20197;-79
2021/12/14 22:18:01;;;;;;;10.10;6.40;;;4.00;99.90;;;;;;10535575;28;20202;-76
2021/12/14 22:23:30;;;;;;;13.47;6.57;;;4.10;99.90;;;;;;10564554;28;20200;-77
2021/12/14 22:28:53;;;;;;;9.13;5.70;;;4.00;99.90;;;;;;10563882;28;20221;-77
2021/12/14 22:34:16;;;;;;;11.97;7.27;;;4.00;99.90;;;;;;10545981;28;20200;-78
2021/12/14 22:39:40;;;;;;;10.13;6.90;;;4.00;99.90;;;;;;10545573;28;20280;-78
2021/12/14 22:45:03;;;;;;;13.43;8.90;;;4.00;99.90;;;;;;10563229;28;20215;-81
2021/12/14 22:50:25;;;;;;;10.47;7.20;;;4.00;99.90;;;;;;10548444;28;20231;-82
2021/12/14 22:55:47;;;;;;;12.07;6.87;;;4.00;99.90;;;;;;10548277;28;20223;-80
2021/12/14 23:01:17;;;;;;;12.50;6.40;;;3.90;99.90;;;;;;10563037;28;20205;-80
2021/12/14 23:06:40;;;;;;;8.90;5.80;;;3.90;99.90;;;;;;10543790;28;20201;-79
2021/12/14 23:12:08;;;;;;;9.07;6.43;;;3.80;99.90;;;;;;10547455;28;20196;-81
2021/12/14 23:17:44;;;;;;;9.30;6.20;;;3.70;99.90;;;;;;10530462;28;20498;-79
2021/12/14 23:23:08;;;;;;;8.27;5.67;;;3.70;99.90;;;;;;10547205;28;20195;-78
2021/12/14 23:28:31;;;;;;;6.50;4.43;;;3.70;99.90;;;;;;10561862;28;20223;-76
2021/12/14 23:33:53;;;;;;;8.13;5.47;;;3.70;99.90;;;;;;10546877;28;20434;-77
2021/12/14 23:39:16;;;;;;;8.20;5.07;;;3.70;99.90;;;;;;10528952;28;20541;-78
2021/12/14 23:44:38;;;;;;;8.43;6.47;;;3.70;99.90;;;;;;10561746;28;20456;-78
2021/12/14 23:50:01;;;;;;;10.50;7.10;;;3.60;99.90;;;;;;10561625;28;20227;-77
2021/12/14 23:55:23;;;;;;;12.60;7.20;;;3.70;99.90;;;;;;10529331;28;20196;-78
